Time;durP1;ratioP1;P1;durP2;ratioP2;P2;SDS_P1;SDS_P2;PMS_P1;PMS_P2;Temp;Humidity;BMP_temperature;BMP_pressure;BME280_temperature;BME280_humidity;BME280_pressure;Samples;Min_cycle;Max_cycle;Signal;HPM_P1;HPM_P2
2021/04/26 00:01:59;;;;;;;8.47;4.70;;;;;;;;;;6187186;23;20195;-84
2021/04/26 00:05:04;;;;;;;12.53;4.63;;;;;;;;;;6188705;23;20202;-83
2021/04/26 00:08:09;;;;;;;8.73;3.97;;;;;;;;;;6171051;23;20200;-84
2021/04/26 00:11:14;;;;;;;11.73;4.40;;;;;;;;;;6171183;23;20183;-83
2021/04/26 00:14:18;;;;;;;9.87;4.00;;;;;;;;;;6188303;23;20167;-83
2021/04/26 00:17:22;;;;;;;10.60;3.90;;;;;;;;;;6172780;23;20175;-83
2021/04/26 00:20:30;;;;;;;9.93;4.40;;;;;;;;;;6190644;23;20174;-83
2021/04/26 00:23:34;;;;;;;10.63;4.50;;;;;;;;;;6172264;23;20179;-84
2021/04/26 00:26:39;;;;;;;10.43;4.30;;;;;;;;;;6172581;23;20244;-84
2021/04/26 00:29:43;;;;;;;6.80;3.73;;;;;;;;;;6172769;23;20172;-84
2021/04/26 00:32:48;;;;;;;8.10;4.23;;;;;;;;;;6190499;23;20255;-83
2021/04/26 00:35:54;;;;;;;8.57;4.10;;;;;;;;;;6172653;23;20196;-83
2021/04/26 00:38:58;;;;;;;9.70;4.80;;;;;;;;;;6173440;23;20215;-84
2021/04/26 00:42:02;;;;;;;10.70;4.60;;;;;;;;;;6189785;23;20188;-83
2021/04/26 00:45:08;;;;;;;7.43;4.23;;;;;;;;;;6172842;23;20187;-83
2021/04/26 00:48:13;;;;;;;14.30;4.83;;;;;;;;;;6207431;23;20159;-83
2021/04/26 00:51:20;;;;;;;9.37;4.30;;;;;;;;;;6173871;23;20184;-84
2021/04/26 00:54:24;;;;;;;10.67;4.50;;;;;;;;;;6173209;23;20188;-83
2021/04/26 00:57:28;;;;;;;11.23;4.70;;;;;;;;;;6190456;23;20219;-84
2021/04/26 01:00:33;;;;;;;10.80;4.87;;;;;;;;;;6172568;23;20179;-84
2021/04/26 01:03:38;;;;;;;9.67;4.40;;;;;;;;;;6186601;23;20238;-84
2021/04/26 01:06:44;;;;;;;10.93;4.60;;;;;;;;;;6189723;23;20171;-84
2021/04/26 01:09:49;;;;;;;9.13;4.70;;;;;;;;;;6189599;23;20251;-84
2021/04/26 01:12:59;;;;;;;14.63;5.07;;;;;;;;;;6189903;23;20234;-83
2021/04/26 01:16:09;;;;;;;9.57;4.63;;;;;;;;;;6190929;23;20199;-83
2021/04/26 01:19:19;;;;;;;14.13;5.17;;;;;;;;;;6191261;23;20218;-84
2021/04/26 01:22:33;;;;;;;14.47;5.27;;;;;;;;;;6188954;23;20191;-84
2021/04/26 01:25:42;;;;;;;12.20;5.07;;;;;;;;;;6189189;23;20445;-84
2021/04/26 01:28:53;;;;;;;11.43;5.20;;;;;;;;;;6189398;23;20572;-85
2021/04/26 01:32:19;;;;;;;15.13;5.10;;;;;;;;;;6188748;23;20252;-84
2021/04/26 01:35:29;;;;;;;14.93;5.13;;;;;;;;;;6189109;23;20198;-83
2021/04/26 01:38:36;;;;;;;14.97;5.10;;;;;;;;;;6189412;23;20195;-83
2021/04/26 01:41:41;;;;;;;9.73;5.20;;;;;;;;;;6188524;23;20176;-84
2021/04/26 01:44:47;;;;;;;13.80;5.30;;;;;;;;;;6189314;23;20856;-84
2021/04/26 01:47:53;;;;;;;12.10;5.50;;;;;;;;;;6189374;23;20219;-84
2021/04/26 01:51:02;;;;;;;9.70;4.77;;;;;;;;;;6196203;23;20176;-84
2021/04/26 01:54:09;;;;;;;13.33;5.07;;;;;;;;;;6189198;23;20408;-83
2021/04/26 01:57:15;;;;;;;12.47;4.90;;;;;;;;;;6189243;23;20172;-83
2021/04/26 02:00:21;;;;;;;10.90;5.17;;;;;;;;;;6189337;23;20222;-83
2021/04/26 02:03:38;;;;;;;13.17;5.07;;;;;;;;;;6189324;23;20195;-83
2021/04/26 02:06:47;;;;;;;14.97;5.57;;;;;;;;;;6171670;23;20235;-84
2021/04/26 02:10:12;;;;;;;17.93;5.33;;;;;;;;;;6189965;23;20458;-83
2021/04/26 02:13:19;;;;;;;9.67;5.27;;;;;;;;;;6171044;23;20175;-84
2021/04/26 02:16:25;;;;;;;11.50;5.10;;;;;;;;;;6171535;23;20196;-84
2021/04/26 02:19:30;;;;;;;12.53;5.20;;;;;;;;;;6171830;23;20175;-84
2021/04/26 02:22:35;;;;;;;9.90;5.30;;;;;;;;;;6171155;23;20180;-84
2021/04/26 02:25:41;;;;;;;13.43;4.80;;;;;;;;;;6189780;23;20223;-84
2021/04/26 02:28:46;;;;;;;10.63;5.20;;;;;;;;;;6180566;23;20183;-83
2021/04/26 02:31:55;;;;;;;16.67;5.57;;;;;;;;;;6172008;23;20234;-82
2021/04/26 02:35:00;;;;;;;13.20;5.30;;;;;;;;;;6171726;23;20195;-83
2021/04/26 02:38:07;;;;;;;14.20;5.50;;;;;;;;;;6171386;23;20215;-82
2021/04/26 02:41:16;;;;;;;10.27;5.43;;;;;;;;;;6171802;23;20584;-83
2021/04/26 02:44:25;;;;;;;13.23;5.70;;;;;;;;;;6171682;23;20180;-82
2021/04/26 02:47:31;;;;;;;10.87;5.33;;;;;;;;;;6171806;23;20271;-82
2021/04/26 02:50:47;;;;;;;9.40;4.37;;;;;;;;;;6177780;23;20176;-83
2021/04/26 02:53:53;;;;;;;16.33;5.80;;;;;;;;;;6171490;23;20178;-82
2021/04/26 02:56:58;;;;;;;17.87;5.30;;;;;;;;;;6171966;23;20525;-83
2021/04/26 03:00:05;;;;;;;13.00;6.03;;;;;;;;;;6171823;23;20176;-82
2021/04/26 03:03:12;;;;;;;12.17;5.60;;;;;;;;;;6180562;23;20567;-82
2021/04/26 03:06:17;;;;;;;14.33;5.70;;;;;;;;;;6189418;23;20172;-82
2021/04/26 03:09:52;;;;;;;13.20;5.53;;;;;;;;;;6189891;23;20541;-83
2021/04/26 03:12:57;;;;;;;14.07;6.23;;;;;;;;;;6188557;23;20183;-84
2021/04/26 03:16:03;;;;;;;13.37;5.37;;;;;;;;;;6188524;23;20227;-82
2021/04/26 03:19:08;;;;;;;13.00;5.47;;;;;;;;;;6189187;23;20200;-83
2021/04/26 03:22:13;;;;;;;11.57;5.40;;;;;;;;;;6189785;23;20179;-83
2021/04/26 03:25:22;;;;;;;10.57;4.73;;;;;;;;;;6191223;23;20184;-83
2021/04/26 03:28:28;;;;;;;17.33;5.60;;;;;;;;;;6190699;23;20410;-84
2021/04/26 03:31:35;;;;;;;11.33;5.03;;;;;;;;;;6190164;23;20403;-83
2021/04/26 03:34:46;;;;;;;11.03;5.50;;;;;;;;;;6189263;23;20246;-81
2021/04/26 03:37:53;;;;;;;14.10;5.50;;;;;;;;;;6190363;23;20175;-82
2021/04/26 03:40:59;;;;;;;12.60;5.13;;;;;;;;;;6190931;23;20176;-83
2021/04/26 03:44:12;;;;;;;14.73;6.17;;;;;;;;;;6198732;23;20168;-82
2021/04/26 03:47:32;;;;;;;12.33;4.70;;;;;;;;;;6210298;23;20156;-82
2021/04/26 03:51:03;;;;;;;14.80;5.57;;;;;;;;;;6199399;23;20191;-82
2021/04/26 03:54:27;;;;;;;14.97;5.43;;;;;;;;;;6210154;23;20152;-82
2021/04/26 03:57:33;;;;;;;16.57;5.03;;;;;;;;;;6213949;23;20196;-82
2021/04/26 04:00:39;;;;;;;10.90;5.07;;;;;;;;;;6213858;23;20191;-83
2021/04/26 04:03:46;;;;;;;12.80;5.00;;;;;;;;;;6211354;23;20190;-82
2021/04/26 04:06:51;;;;;;;14.30;4.60;;;;;;;;;;6212688;23;20167;-80
2021/04/26 04:10:13;;;;;;;9.87;4.10;;;;;;;;;;6211663;23;20175;-82
2021/04/26 04:13:38;;;;;;;14.10;4.93;;;;;;;;;;6211573;23;20224;-81
2021/04/26 04:16:44;;;;;;;11.40;5.10;;;;;;;;;;6204213;23;20234;-83
2021/04/26 04:19:49;;;;;;;15.97;4.60;;;;;;;;;;6212753;23;20171;-79
2021/04/26 04:22:56;;;;;;;11.90;5.23;;;;;;;;;;6208572;23;20179;-82
2021/04/26 04:26:01;;;;;;;12.87;5.10;;;;;;;;;;6209226;23;20228;-83
2021/04/26 04:29:09;;;;;;;12.13;4.80;;;;;;;;;;6212720;23;20225;-81
2021/04/26 04:32:25;;;;;;;12.80;4.77;;;;;;;;;;6211797;23;20176;-81
2021/04/26 04:35:49;;;;;;;13.37;5.33;;;;;;;;;;6212074;23;20223;-81
2021/04/26 04:39:13;;;;;;;15.20;5.40;;;;;;;;;;6213794;23;20179;-81
2021/04/26 04:42:36;;;;;;;18.20;5.33;;;;;;;;;;6211865;23;20172;-82
2021/04/26 04:45:42;;;;;;;17.73;5.50;;;;;;;;;;6203459;23;20223;-82
2021/04/26 04:49:16;;;;;;;22.47;5.63;;;;;;;;;;6209197;23;20176;-81
2021/04/26 04:52:21;;;;;;;19.40;6.47;;;;;;;;;;6205942;23;20176;-82
2021/04/26 04:55:26;;;;;;;22.47;5.87;;;;;;;;;;6211165;23;20198;-82
2021/04/26 04:58:31;;;;;;;15.17;5.47;;;;;;;;;;6211957;23;20193;-82
2021/04/26 05:01:37;;;;;;;11.30;5.03;;;;;;;;;;6210116;23;20167;-82
2021/04/26 05:05:06;;;;;;;32.67;6.73;;;;;;;;;;6183811;23;20195;-80
2021/04/26 05:08:29;;;;;;;21.83;5.33;;;;;;;;;;6203520;23;20167;-81
2021/04/26 05:11:53;;;;;;;22.50;5.87;;;;;;;;;;6194108;23;20245;-83
2021/04/26 05:15:01;;;;;;;28.93;6.50;;;;;;;;;;6193628;23;20199;-82
2021/04/26 05:18:07;;;;;;;30.17;8.90;;;;;;;;;;6173266;23;20186;-82
2021/04/26 05:21:12;;;;;;;18.67;5.30;;;;;;;;;;6173095;23;20175;-83
2021/04/26 05:24:17;;;;;;;14.37;5.40;;;;;;;;;;6172486;23;20288;-82
2021/04/26 05:27:22;;;;;;;15.03;4.93;;;;;;;;;;6172788;23;20172;-83
2021/04/26 05:30:28;;;;;;;14.40;4.90;;;;;;;;;;6172589;23;20179;-82
2021/04/26 05:33:33;;;;;;;11.03;4.43;;;;;;;;;;6172213;23;20179;-82
2021/04/26 05:36:37;;;;;;;11.60;4.77;;;;;;;;;;6190393;23;20582;-82
2021/04/26 05:39:45;;;;;;;13.37;4.57;;;;;;;;;;6172356;23;20180;-82
2021/04/26 05:42:49;;;;;;;12.97;5.20;;;;;;;;;;6172006;23;20172;-82
2021/04/26 05:45:54;;;;;;;11.60;4.57;;;;;;;;;;6172769;23;20415;-83
2021/04/26 05:49:06;;;;;;;17.77;5.17;;;;;;;;;;6172080;23;20179;-81
2021/04/26 05:52:11;;;;;;;12.10;4.93;;;;;;;;;;6170839;23;20199;-82
2021/04/26 05:55:15;;;;;;;11.10;4.33;;;;;;;;;;6189603;23;20191;-81
2021/04/26 05:58:21;;;;;;;16.83;4.80;;;;;;;;;;6190255;23;20227;-81
2021/04/26 06:01:25;;;;;;;11.43;4.33;;;;;;;;;;6171699;23;20215;-82
2021/04/26 06:04:30;;;;;;;11.00;4.67;;;;;;;;;;6172332;23;20183;-82
2021/04/26 06:07:35;;;;;;;13.40;4.17;;;;;;;;;;6190475;23;20175;-82
2021/04/26 06:10:40;;;;;;;9.80;4.53;;;;;;;;;;6189858;23;20227;-81
2021/04/26 06:13:45;;;;;;;8.43;4.27;;;;;;;;;;6188858;23;20225;-83
2021/04/26 06:16:49;;;;;;;12.43;3.97;;;;;;;;;;6172683;23;20283;-82
2021/04/26 06:19:55;;;;;;;7.80;3.67;;;;;;;;;;6189793;23;20211;-82
2021/04/26 06:22:59;;;;;;;8.43;3.63;;;;;;;;;;6189329;23;20179;-82
2021/04/26 06:26:04;;;;;;;12.87;3.10;;;;;;;;;;6189845;23;20203;-82
2021/04/26 06:29:08;;;;;;;9.52;3.60;;;;;;;;;;6173179;23;20466;-82
2021/04/26 06:32:12;;;;;;;7.35;3.17;;;;;;;;;;6190351;23;20176;-82
2021/04/26 06:35:18;;;;;;;6.30;3.00;;;;;;;;;;6190071;23;20246;-83
2021/04/26 06:38:22;;;;;;;10.30;3.10;;;;;;;;;;6191346;23;20175;-83
2021/04/26 06:41:27;;;;;;;4.93;2.72;;;;;;;;;;6189686;23;20210;-83
2021/04/26 06:44:35;;;;;;;6.47;3.10;;;;;;;;;;6189778;23;20175;-82
2021/04/26 06:47:39;;;;;;;13.40;3.25;;;;;;;;;;6172345;23;20172;-83
2021/04/26 06:50:45;;;;;;;8.02;3.55;;;;;;;;;;6171907;23;20175;-83
2021/04/26 06:53:49;;;;;;;8.10;3.75;;;;;;;;;;6170699;23;20211;-87
2021/04/26 06:56:53;;;;;;;10.60;3.58;;;;;;;;;;6189788;23;20247;-84
2021/04/26 06:59:58;;;;;;;10.18;3.83;;;;;;;;;;6172175;23;20524;-84
2021/04/26 07:03:03;;;;;;;8.30;3.35;;;;;;;;;;6191090;23;20226;-82
2021/04/26 07:06:09;;;;;;;11.65;3.53;;;;;;;;;;6190286;23;20252;-83
2021/04/26 07:09:14;;;;;;;9.25;3.47;;;;;;;;;;6173890;23;20299;-83
2021/04/26 07:12:18;;;;;;;12.30;3.72;;;;;;;;;;6205129;23;20191;-83
2021/04/26 07:15:23;;;;;;;12.30;3.10;;;;;;;;;;6191486;23;20239;-83
2021/04/26 07:18:27;;;;;;;5.22;2.97;;;;;;;;;;6172951;23;20223;-84
2021/04/26 07:21:33;;;;;;;10.85;2.72;;;;;;;;;;6190436;23;20274;-85
2021/04/26 07:24:37;;;;;;;7.45;3.55;;;;;;;;;;6173633;23;20296;-83
2021/04/26 07:27:42;;;;;;;7.07;3.10;;;;;;;;;;6171874;23;20552;-84
2021/04/26 07:30:47;;;;;;;10.23;6.43;;;;;;;;;;6172096;23;20285;-84
2021/04/26 07:33:51;;;;;;;12.15;4.90;;;;;;;;;;6171990;23;20199;-84
2021/04/26 07:36:59;;;;;;;12.10;3.17;;;;;;;;;;6186141;23;20284;-83
2021/04/26 07:40:03;;;;;;;9.02;3.30;;;;;;;;;;6204486;23;20191;-83
2021/04/26 07:43:08;;;;;;;7.90;3.08;;;;;;;;;;6196653;23;20256;-84
2021/04/26 07:46:15;;;;;;;7.45;2.90;;;;;;;;;;6177149;23;20171;-83
2021/04/26 07:49:20;;;;;;;15.60;5.88;;;;;;;;;;6178650;23;20488;-85
2021/04/26 07:52:26;;;;;;;5.25;2.78;;;;;;;;;;6190189;23;20215;-84
2021/04/26 07:55:31;;;;;;;17.20;6.05;;;;;;;;;;6174555;23;20195;-84
2021/04/26 07:58:35;;;;;;;11.75;3.25;;;;;;;;;;6190501;23;20211;-83
2021/04/26 08:01:39;;;;;;;8.07;3.45;;;;;;;;;;6191452;23;20180;-84
2021/04/26 08:04:44;;;;;;;7.75;3.28;;;;;;;;;;6183330;23;20188;-83
2021/04/26 08:07:49;;;;;;;8.95;4.68;;;;;;;;;;6209085;23;20187;-83
2021/04/26 08:10:54;;;;;;;5.22;2.72;;;;;;;;;;6188591;23;20180;-83
2021/04/26 08:13:58;;;;;;;6.85;3.05;;;;;;;;;;6201611;23;20175;-83
2021/04/26 08:17:03;;;;;;;6.35;2.85;;;;;;;;;;6181526;23;20235;-83
2021/04/26 08:20:08;;;;;;;8.77;3.10;;;;;;;;;;6193528;23;20181;-84
2021/04/26 08:23:13;;;;;;;16.80;6.93;;;;;;;;;;6191004;23;20175;-85
2021/04/26 08:26:18;;;;;;;6.00;2.95;;;;;;;;;;6173000;23;20604;-85
2021/04/26 08:29:23;;;;;;;9.70;3.22;;;;;;;;;;6190929;23;20306;-84
2021/04/26 08:32:28;;;;;;;16.92;5.07;;;;;;;;;;6190166;23;20204;-85
2021/04/26 08:35:32;;;;;;;16.73;5.78;;;;;;;;;;6177741;23;20271;-84
2021/04/26 08:38:37;;;;;;;22.25;9.32;;;;;;;;;;6204781;23;20221;-85
2021/04/26 08:41:42;;;;;;;8.45;3.05;;;;;;;;;;6196753;23;20183;-85
2021/04/26 08:44:47;;;;;;;6.78;3.10;;;;;;;;;;6196582;23;20219;-84
2021/04/26 08:47:52;;;;;;;14.05;3.78;;;;;;;;;;6187606;23;20189;-83
2021/04/26 08:51:00;;;;;;;10.40;3.70;;;;;;;;;;6208516;23;20184;-85
2021/04/26 08:54:07;;;;;;;6.05;3.25;;;;;;;;;;6193690;23;20184;-85
2021/04/26 08:57:11;;;;;;;9.38;2.92;;;;;;;;;;6210416;23;20235;-85
2021/04/26 09:00:16;;;;;;;7.88;3.63;;;;;;;;;;6189870;23;20216;-85
2021/04/26 09:03:30;;;;;;;9.65;3.65;;;;;;;;;;6206521;23;20232;-83
2021/04/26 09:06:58;;;;;;;6.05;3.20;;;;;;;;;;6206807;23;20192;-84
2021/04/26 09:10:03;;;;;;;8.45;3.13;;;;;;;;;;6208970;23;20196;-85
2021/04/26 09:13:27;;;;;;;8.48;3.13;;;;;;;;;;6191725;23;20231;-84
2021/04/26 09:16:34;;;;;;;11.38;3.33;;;;;;;;;;6184915;23;20255;-84
2021/04/26 09:19:39;;;;;;;10.88;3.00;;;;;;;;;;6193170;23;20176;-84
2021/04/26 09:22:45;;;;;;;7.55;2.97;;;;;;;;;;6192984;23;20235;-84
2021/04/26 09:25:50;;;;;;;9.25;3.22;;;;;;;;;;6176052;23;20192;-84
2021/04/26 09:29:13;;;;;;;8.23;3.90;;;;;;;;;;6179879;23;20175;-84
2021/04/26 09:32:18;;;;;;;5.97;3.10;;;;;;;;;;6173847;23;20572;-84
2021/04/26 09:35:27;;;;;;;10.10;3.70;;;;;;;;;;6174361;23;20568;-85
2021/04/26 09:38:31;;;;;;;10.20;3.15;;;;;;;;;;6174932;23;20179;-85
2021/04/26 09:41:37;;;;;;;9.63;3.10;;;;;;;;;;6191613;23;20174;-85
2021/04/26 09:44:42;;;;;;;7.60;3.60;;;;;;;;;;6174366;23;20195;-85
2021/04/26 09:47:46;;;;;;;5.22;2.90;;;;;;;;;;6173399;23;20492;-85
2021/04/26 09:50:51;;;;;;;6.75;3.20;;;;;;;;;;6175364;23;20212;-85
2021/04/26 09:53:56;;;;;;;15.00;3.90;;;;;;;;;;6196923;23;20175;-86
2021/04/26 09:57:02;;;;;;;7.05;3.05;;;;;;;;;;6192605;23;20219;-85
2021/04/26 10:00:07;;;;;;;5.70;2.95;;;;;;;;;;6192637;23;20571;-85
2021/04/26 10:03:13;;;;;;;6.85;3.00;;;;;;;;;;6191594;23;20215;-84
2021/04/26 10:06:18;;;;;;;8.38;2.80;;;;;;;;;;6174463;23;20211;-85
2021/04/26 10:09:23;;;;;;;9.98;3.03;;;;;;;;;;6192111;23;20179;-84
2021/04/26 10:12:28;;;;;;;6.22;2.88;;;;;;;;;;6191706;23;20429;-85
2021/04/26 10:15:33;;;;;;;9.77;2.83;;;;;;;;;;6191624;23;20489;-85
2021/04/26 10:18:38;;;;;;;6.30;2.60;;;;;;;;;;6192389;23;20175;-85
2021/04/26 10:21:52;;;;;;;6.15;2.83;;;;;;;;;;6192279;23;20179;-85
2021/04/26 10:24:59;;;;;;;8.50;3.38;;;;;;;;;;6173615;23;20175;-85
2021/04/26 10:28:28;;;;;;;7.63;2.92;;;;;;;;;;6191903;23;20218;-86
2021/04/26 10:31:52;;;;;;;7.82;2.55;;;;;;;;;;6191554;23;20176;-85
2021/04/26 10:35:15;;;;;;;7.85;3.33;;;;;;;;;;6191976;23;20464;-83
2021/04/26 10:38:39;;;;;;;7.05;2.60;;;;;;;;;;6173289;23;20404;-84
2021/04/26 10:41:58;;;;;;;7.65;2.55;;;;;;;;;;6173041;23;20327;-85
2021/04/26 10:45:05;;;;;;;8.43;2.50;;;;;;;;;;6194911;23;20259;-85
2021/04/26 10:48:11;;;;;;;6.43;2.55;;;;;;;;;;6176253;23;20272;-85
2021/04/26 10:51:21;;;;;;;6.88;3.00;;;;;;;;;;6191493;23;20259;-84
2021/04/26 10:54:41;;;;;;;5.93;2.60;;;;;;;;;;6172792;23;20194;-85
2021/04/26 10:57:47;;;;;;;6.22;2.78;;;;;;;;;;6173973;23;20168;-85
2021/04/26 11:00:53;;;;;;;6.10;2.60;;;;;;;;;;6174229;23;20206;-85
2021/04/26 11:04:06;;;;;;;8.93;3.13;;;;;;;;;;6190536;23;20171;-85
2021/04/26 11:07:15;;;;;;;6.28;2.78;;;;;;;;;;6191534;23;20596;-85
2021/04/26 11:10:31;;;;;;;7.65;3.58;;;;;;;;;;6191904;23;20762;-85
2021/04/26 11:13:40;;;;;;;5.63;2.75;;;;;;;;;;6173774;23;20176;-85
2021/04/26 11:16:54;;;;;;;6.80;3.22;;;;;;;;;;6194730;23;20448;-85
2021/04/26 11:20:11;;;;;;;11.90;3.92;;;;;;;;;;6173817;23;20222;-86
2021/04/26 11:23:30;;;;;;;7.07;3.20;;;;;;;;;;6191242;23;20608;-86
2021/04/26 11:26:34;;;;;;;4.80;2.70;;;;;;;;;;6175177;23;20299;-86
2021/04/26 11:29:59;;;;;;;9.63;3.25;;;;;;;;;;6173824;23;20175;-85
2021/04/26 11:33:11;;;;;;;9.98;2.60;;;;;;;;;;6173715;23;20753;-85
2021/04/26 11:36:16;;;;;;;7.80;3.05;;;;;;;;;;6193287;23;20200;-85
2021/04/26 11:39:27;;;;;;;8.50;2.90;;;;;;;;;;6180714;23;20535;-85
2021/04/26 11:42:33;;;;;;;8.52;3.20;;;;;;;;;;6173166;23;20216;-86
2021/04/26 11:45:38;;;;;;;6.60;2.78;;;;;;;;;;6173594;23;20449;-85
2021/04/26 11:48:43;;;;;;;3.85;2.35;;;;;;;;;;6191519;23;20271;-86
2021/04/26 11:51:49;;;;;;;5.53;2.60;;;;;;;;;;6171799;23;20183;-85
2021/04/26 11:54:54;;;;;;;8.93;2.97;;;;;;;;;;6199032;23;20255;-86
2021/04/26 11:57:59;;;;;;;8.00;2.92;;;;;;;;;;6210538;23;20163;-86
2021/04/26 12:01:09;;;;;;;6.18;2.83;;;;;;;;;;6208188;23;20188;-86
2021/04/26 12:04:14;;;;;;;5.90;2.70;;;;;;;;;;6189547;23;20199;-86
2021/04/26 12:07:19;;;;;;;11.00;3.53;;;;;;;;;;6186398;23;20187;-84
2021/04/26 12:10:25;;;;;;;6.93;2.60;;;;;;;;;;6183208;23;20242;-85
2021/04/26 12:13:30;;;;;;;4.55;2.80;;;;;;;;;;6201835;23;20179;-85
2021/04/26 12:16:34;;;;;;;6.53;2.75;;;;;;;;;;6188654;23;20199;-85
2021/04/26 12:19:40;;;;;;;4.88;2.60;;;;;;;;;;6181408;23;20172;-85
2021/04/26 12:22:45;;;;;;;7.88;2.80;;;;;;;;;;6204551;23;20176;-86
2021/04/26 12:25:49;;;;;;;7.07;2.80;;;;;;;;;;6178441;23;20272;-85
2021/04/26 12:28:54;;;;;;;10.63;2.45;;;;;;;;;;6177365;23;20376;-85
2021/04/26 12:32:08;;;;;;;4.55;2.25;;;;;;;;;;6198308;23;20215;-86
2021/04/26 12:35:16;;;;;;;6.47;2.65;;;;;;;;;;6200559;23;20180;-84
2021/04/26 12:38:26;;;;;;;7.78;3.25;;;;;;;;;;6173853;23;20220;-85
2021/04/26 12:41:40;;;;;;;6.05;2.38;;;;;;;;;;6173478;23;20207;-84
2021/04/26 12:44:45;;;;;;;6.00;2.88;;;;;;;;;;6173256;23;20333;-85
2021/04/26 12:48:00;;;;;;;6.70;2.90;;;;;;;;;;6173296;23;20291;-84
2021/04/26 12:51:07;;;;;;;7.03;2.55;;;;;;;;;;6190904;23;20536;-85
2021/04/26 12:54:12;;;;;;;5.35;2.50;;;;;;;;;;6191100;23;20248;-85
2021/04/26 12:57:23;;;;;;;6.85;3.05;;;;;;;;;;6173200;23;20251;-85
2021/04/26 13:00:35;;;;;;;6.03;2.78;;;;;;;;;;6190902;23;20208;-85
2021/04/26 13:03:41;;;;;;;7.90;2.40;;;;;;;;;;6189918;23;20232;-85
2021/04/26 13:06:48;;;;;;;6.18;2.78;;;;;;;;;;6173203;23;20465;-86
2021/04/26 13:10:06;;;;;;;5.57;2.70;;;;;;;;;;6191055;23;20261;-85
2021/04/26 13:13:11;;;;;;;5.18;2.40;;;;;;;;;;6190654;23;20454;-83
2021/04/26 13:16:19;;;;;;;7.60;3.03;;;;;;;;;;6179276;23;20195;-84
2021/04/26 13:19:25;;;;;;;9.18;3.08;;;;;;;;;;6191101;23;20222;-83
2021/04/26 13:22:32;;;;;;;13.55;2.58;;;;;;;;;;6189869;23;20498;-84
2021/04/26 13:25:36;;;;;;;6.00;2.80;;;;;;;;;;6172915;23;20180;-84
2021/04/26 13:28:40;;;;;;;11.30;2.50;;;;;;;;;;6173001;23;20543;-83
2021/04/26 13:31:46;;;;;;;5.30;2.40;;;;;;;;;;6172263;23;20179;-84
2021/04/26 13:34:52;;;;;;;5.93;2.45;;;;;;;;;;6173309;23;20230;-84
2021/04/26 13:37:57;;;;;;;13.95;3.20;;;;;;;;;;6173337;23;20593;-85
2021/04/26 13:41:02;;;;;;;5.15;2.38;;;;;;;;;;6191602;23;20423;-85
2021/04/26 13:44:09;;;;;;;6.50;2.40;;;;;;;;;;6193089;23;20180;-85
2021/04/26 13:47:14;;;;;;;4.70;2.20;;;;;;;;;;6194796;23;20175;-85
2021/04/26 13:50:18;;;;;;;4.40;2.75;;;;;;;;;;6195038;23;20179;-84
2021/04/26 13:53:25;;;;;;;5.43;2.30;;;;;;;;;;6172239;23;20175;-83
2021/04/26 13:56:29;;;;;;;8.32;2.78;;;;;;;;;;6173097;23;20438;-83
2021/04/26 13:59:34;;;;;;;5.40;2.35;;;;;;;;;;6173066;23;20456;-84
2021/04/26 14:02:39;;;;;;;7.63;2.50;;;;;;;;;;6190755;23;20262;-84
2021/04/26 14:05:43;;;;;;;4.47;2.40;;;;;;;;;;6190875;23;20211;-85
2021/04/26 14:08:49;;;;;;;5.47;2.40;;;;;;;;;;6191329;23;20195;-86
2021/04/26 14:11:55;;;;;;;8.82;3.63;;;;;;;;;;6189825;23;20215;-85
2021/04/26 14:15:00;;;;;;;5.90;2.65;;;;;;;;;;6189536;23;20192;-83
2021/04/26 14:18:05;;;;;;;5.18;2.38;;;;;;;;;;6189767;23;20199;-84
2021/04/26 14:21:13;;;;;;;5.40;2.58;;;;;;;;;;6171737;23;20223;-85
2021/04/26 14:24:18;;;;;;;5.90;2.22;;;;;;;;;;6172820;23;20585;-84
2021/04/26 14:27:23;;;;;;;3.65;2.30;;;;;;;;;;6172791;23;20171;-85
2021/04/26 14:30:28;;;;;;;9.40;3.30;;;;;;;;;;6192236;23;20170;-85
2021/04/26 14:33:32;;;;;;;8.52;2.72;;;;;;;;;;6193454;23;20214;-84
2021/04/26 14:36:37;;;;;;;9.65;3.00;;;;;;;;;;6178011;23;20200;-85
2021/04/26 14:39:42;;;;;;;5.32;2.33;;;;;;;;;;6173532;23;20207;-84
2021/04/26 14:42:47;;;;;;;7.93;2.65;;;;;;;;;;6172514;23;20207;-84
2021/04/26 14:45:52;;;;;;;4.63;2.55;;;;;;;;;;6171737;23;20172;-85
2021/04/26 14:48:56;;;;;;;3.50;2.28;;;;;;;;;;6172329;23;20520;-84
2021/04/26 14:52:00;;;;;;;6.95;2.45;;;;;;;;;;6190174;23;20223;-83
2021/04/26 14:55:06;;;;;;;12.38;2.72;;;;;;;;;;6173032;23;20241;-83
2021/04/26 14:58:12;;;;;;;5.03;2.25;;;;;;;;;;6192179;23;20199;-82
2021/04/26 15:01:16;;;;;;;4.80;2.40;;;;;;;;;;6206494;23;20200;-82
2021/04/26 15:04:22;;;;;;;5.05;2.47;;;;;;;;;;6165311;23;20208;-84
2021/04/26 15:07:27;;;;;;;3.88;2.40;;;;;;;;;;6162291;23;20208;-84
2021/04/26 15:10:32;;;;;;;5.97;2.80;;;;;;;;;;6144554;23;20175;-84
2021/04/26 15:13:37;;;;;;;8.70;2.50;;;;;;;;;;6161200;23;20176;-85
2021/04/26 15:16:41;;;;;;;8.52;2.47;;;;;;;;;;6162681;23;20211;-85
2021/04/26 15:19:46;;;;;;;10.05;2.38;;;;;;;;;;6144765;23;20253;-84
2021/04/26 15:22:51;;;;;;;8.15;2.63;;;;;;;;;;6143323;23;20412;-85
2021/04/26 15:25:56;;;;;;;4.88;2.67;;;;;;;;;;6142850;23;20176;-83
2021/04/26 15:29:01;;;;;;;8.60;2.45;;;;;;;;;;6162546;23;20179;-84
2021/04/26 15:32:06;;;;;;;5.70;2.38;;;;;;;;;;6142098;23;20243;-84
2021/04/26 15:35:12;;;;;;;4.63;2.08;;;;;;;;;;6143861;23;20207;-84
2021/04/26 15:38:16;;;;;;;6.90;2.70;;;;;;;;;;6143956;23;20584;-83
2021/04/26 15:41:22;;;;;;;6.38;2.60;;;;;;;;;;6160766;23;20201;-84
2021/04/26 15:44:27;;;;;;;6.57;2.30;;;;;;;;;;6165835;23;20193;-82
2021/04/26 15:47:32;;;;;;;9.98;2.30;;;;;;;;;;6163154;23;20525;-82
2021/04/26 15:50:37;;;;;;;4.80;2.10;;;;;;;;;;6145626;23;20196;-83
2021/04/26 15:53:41;;;;;;;4.63;2.50;;;;;;;;;;6143563;23;20224;-83
2021/04/26 15:56:47;;;;;;;5.28;2.20;;;;;;;;;;6142626;23;20243;-82
2021/04/26 15:59:51;;;;;;;4.20;2.05;;;;;;;;;;6142999;23;20404;-83
2021/04/26 16:02:57;;;;;;;10.02;2.55;;;;;;;;;;6179002;23;20195;-83
2021/04/26 16:06:02;;;;;;;5.93;2.40;;;;;;;;;;6174748;23;20231;-82
2021/04/26 16:09:07;;;;;;;5.82;2.47;;;;;;;;;;6191034;23;20176;-82
2021/04/26 16:12:13;;;;;;;4.78;2.13;;;;;;;;;;6172136;23;20403;-82
2021/04/26 16:15:18;;;;;;;6.50;2.38;;;;;;;;;;6173812;23;20196;-82
2021/04/26 16:18:22;;;;;;;5.68;2.20;;;;;;;;;;6190774;23;20172;-81
2021/04/26 16:21:27;;;;;;;7.72;2.60;;;;;;;;;;6171107;23;20394;-82
2021/04/26 16:24:31;;;;;;;3.83;2.00;;;;;;;;;;6191735;23;20276;-82
2021/04/26 16:27:37;;;;;;;9.57;2.90;;;;;;;;;;6189123;23;20529;-83
2021/04/26 16:30:41;;;;;;;9.48;3.30;;;;;;;;;;6171910;23;20200;-82
2021/04/26 16:33:45;;;;;;;9.02;2.55;;;;;;;;;;6171202;23;20285;-83
2021/04/26 16:36:50;;;;;;;4.60;2.30;;;;;;;;;;6170619;23;20239;-83
2021/04/26 16:39:54;;;;;;;5.75;2.28;;;;;;;;;;6189491;23;20172;-83
2021/04/26 16:42:59;;;;;;;4.72;2.17;;;;;;;;;;6188462;23;20184;-83
2021/04/26 16:46:04;;;;;;;7.32;2.63;;;;;;;;;;6188484;23;20172;-83
2021/04/26 16:49:10;;;;;;;6.50;2.45;;;;;;;;;;6189057;23;20219;-82
2021/04/26 16:52:16;;;;;;;9.10;3.85;;;;;;;;;;6171346;23;20191;-83
2021/04/26 16:55:20;;;;;;;6.65;2.58;;;;;;;;;;6187390;23;20180;-82
2021/04/26 16:58:26;;;;;;;6.63;2.67;;;;;;;;;;6172999;23;20449;-83
2021/04/26 17:01:31;;;;;;;6.63;2.13;;;;;;;;;;6172866;23;20195;-83
2021/04/26 17:04:35;;;;;;;6.97;2.35;;;;;;;;;;6190355;23;20315;-82
2021/04/26 17:07:40;;;;;;;4.32;2.30;;;;;;;;;;6174014;23;20416;-82
2021/04/26 17:10:45;;;;;;;8.00;2.42;;;;;;;;;;6178487;23;20545;-83
2021/04/26 17:13:50;;;;;;;7.13;2.78;;;;;;;;;;6191662;23;20223;-84
2021/04/26 17:16:55;;;;;;;3.50;2.03;;;;;;;;;;6193168;23;20223;-83
2021/04/26 17:19:59;;;;;;;9.23;2.45;;;;;;;;;;6174416;23;20420;-83
2021/04/26 17:23:04;;;;;;;4.38;2.47;;;;;;;;;;6173982;23;20183;-83
2021/04/26 17:26:09;;;;;;;3.97;2.30;;;;;;;;;;6189550;23;20600;-83
2021/04/26 17:29:14;;;;;;;4.32;2.13;;;;;;;;;;6172028;23;20176;-83
2021/04/26 17:32:19;;;;;;;5.35;2.63;;;;;;;;;;6190547;23;20513;-84
2021/04/26 17:35:23;;;;;;;4.85;2.28;;;;;;;;;;6191602;23;20286;-84
2021/04/26 17:38:28;;;;;;;4.53;2.17;;;;;;;;;;6192238;23;20864;-84
2021/04/26 17:41:36;;;;;;;7.75;2.95;;;;;;;;;;6177516;23;20187;-82
2021/04/26 17:44:41;;;;;;;4.05;2.17;;;;;;;;;;6175050;23;20223;-82
2021/04/26 17:47:46;;;;;;;5.97;2.60;;;;;;;;;;6193840;23;20521;-83
2021/04/26 17:50:51;;;;;;;6.95;2.80;;;;;;;;;;6174514;23;20202;-84
2021/04/26 17:53:55;;;;;;;10.07;4.72;;;;;;;;;;6173578;23;20208;-82
2021/04/26 17:57:00;;;;;;;10.57;4.15;;;;;;;;;;6174358;23;20202;-83
2021/04/26 18:00:06;;;;;;;12.35;5.05;;;;;;;;;;6175910;23;20192;-82
2021/04/26 18:03:11;;;;;;;8.38;3.17;;;;;;;;;;6182056;23;20301;-81
2021/04/26 18:06:15;;;;;;;5.25;2.58;;;;;;;;;;6191088;23;20171;-84
2021/04/26 18:09:20;;;;;;;8.48;2.80;;;;;;;;;;6192361;23;20207;-83
2021/04/26 18:12:25;;;;;;;8.98;3.00;;;;;;;;;;6190746;23;20255;-83
2021/04/26 18:15:30;;;;;;;6.30;2.78;;;;;;;;;;6192932;23;20210;-84
2021/04/26 18:18:35;;;;;;;9.30;2.28;;;;;;;;;;6193091;23;20167;-83
2021/04/26 18:21:39;;;;;;;5.05;2.30;;;;;;;;;;6191146;23;20291;-83
2021/04/26 18:24:44;;;;;;;6.53;2.67;;;;;;;;;;6196436;23;20183;-82
2021/04/26 18:27:49;;;;;;;6.65;2.70;;;;;;;;;;6192119;23;20175;-84
2021/04/26 18:30:54;;;;;;;6.22;2.65;;;;;;;;;;6191203;23;20544;-84
2021/04/26 18:33:59;;;;;;;5.85;2.60;;;;;;;;;;6193327;23;20249;-83
2021/04/26 18:37:04;;;;;;;6.57;2.88;;;;;;;;;;6191039;23;20243;-82